sensor_id;sensor_type;location;lat;lon;timestamp;pressure;altitude;pressure_sealevel;temperature;humidity
72794;BME280;63436;26.334;50.194;2022-09-17T00:04:31;100112.38;;;34.94;9.56
72794;BME280;63436;26.334;50.194;2022-09-17T00:06:57;100108.62;;;34.33;9.74
72794;BME280;63436;26.334;50.194;2022-09-17T00:09:22;100106.19;;;34.63;9.60
72794;BME280;63436;26.334;50.194;2022-09-17T00:11:52;100107.69;;;35.05;9.25
72794;BME280;63436;26.334;50.194;2022-09-17T00:14:15;100111.96;;;35.13;9.12
72794;BME280;63436;26.334;50.194;2022-09-17T00:19:09;100111.81;;;35.18;8.85
72794;BME280;63436;26.334;50.194;2022-09-17T00:21:31;100113.20;;;35.78;8.68
72794;BME280;63436;26.334;50.194;2022-09-17T00:23:56;100113.11;;;35.19;8.88
72794;BME280;63436;26.334;50.194;2022-09-17T00:26:22;100116.18;;;35.33;8.79
72794;BME280;63436;26.334;50.194;2022-09-17T00:28:49;100116.86;;;34.91;8.87
72794;BME280;63436;26.334;50.194;2022-09-17T00:31:14;100115.90;;;35.06;8.73
72794;BME280;63436;26.334;50.194;2022-09-17T00:33:37;100117.71;;;35.10;8.80
72794;BME280;63436;26.334;50.194;2022-09-17T00:36:04;100115.52;;;34.91;8.94
72794;BME280;63436;26.334;50.194;2022-09-17T00:40:54;100121.10;;;34.97;8.82
72794;BME280;63436;26.334;50.194;2022-09-17T00:43:31;100122.98;;;35.26;8.78
72794;BME280;63436;26.334;50.194;2022-09-17T00:45:44;100123.13;;;34.76;9.01
72794;BME280;63436;26.334;50.194;2022-09-17T00:48:10;100127.72;;;33.78;9.46
72794;BME280;63436;26.334;50.194;2022-09-17T00:50:38;100127.04;;;34.55;9.14
72794;BME280;63436;26.334;50.194;2022-09-17T00:53:04;100125.85;;;34.91;9.04
72794;BME280;63436;26.334;50.194;2022-09-17T00:55:29;100127.47;;;34.68;9.20
72794;BME280;63436;26.334;50.194;2022-09-17T00:57:55;100129.31;;;35.01;9.04
72794;BME280;63436;26.334;50.194;2022-09-17T01:05:23;100132.76;;;34.19;9.42
72794;BME280;63436;26.334;50.194;2022-09-17T01:10:05;100135.18;;;33.93;9.70
72794;BME280;63436;26.334;50.194;2022-09-17T01:12:35;100132.73;;;34.27;9.67
72794;BME280;63436;26.334;50.194;2022-09-17T01:15:01;100135.48;;;34.75;9.62
72794;BME280;63436;26.334;50.194;2022-09-17T01:17:23;100137.47;;;34.11;9.93
72794;BME280;63436;26.334;50.194;2022-09-17T01:24:45;100148.00;;;34.15;10.64
72794;BME280;63436;26.334;50.194;2022-09-17T01:29:33;100148.34;;;33.95;11.16
72794;BME280;63436;26.334;50.194;2022-09-17T01:31:51;100149.81;;;33.71;11.35
72794;BME280;63436;26.334;50.194;2022-09-17T01:34:19;100149.89;;;33.96;11.37
72794;BME280;63436;26.334;50.194;2022-09-17T01:36:47;100149.65;;;34.53;11.45
72794;BME280;63436;26.334;50.194;2022-09-17T01:39:10;100154.42;;;34.32;11.68
72794;BME280;63436;26.334;50.194;2022-09-17T01:41:37;100154.98;;;34.30;11.93
72794;BME280;63436;26.334;50.194;2022-09-17T01:43:58;100155.57;;;34.49;12.15
72794;BME280;63436;26.334;50.194;2022-09-17T01:46:25;100159.61;;;33.51;12.87
72794;BME280;63436;26.334;50.194;2022-09-17T01:48:49;100161.35;;;32.23;13.99
72794;BME280;63436;26.334;50.194;2022-09-17T01:51:15;100159.41;;;33.87;13.69
72794;BME280;63436;26.334;50.194;2022-09-17T01:53:42;100159.62;;;33.68;13.99
72794;BME280;63436;26.334;50.194;2022-09-17T01:56:03;100160.11;;;33.44;14.53
72794;BME280;63436;26.334;50.194;2022-09-17T01:58:32;100159.66;;;33.64;14.59
72794;BME280;63436;26.334;50.194;2022-09-17T02:03:23;100164.69;;;33.62;14.98
72794;BME280;63436;26.334;50.194;2022-09-17T02:05:49;100165.78;;;33.95;15.09
72794;BME280;63436;26.334;50.194;2022-09-17T02:08:13;100164.94;;;33.26;15.50
72794;BME280;63436;26.334;50.194;2022-09-17T02:10:39;100166.58;;;33.48;15.42
72794;BME280;63436;26.334;50.194;2022-09-17T02:13:03;100168.22;;;34.04;15.39
72794;BME280;63436;26.334;50.194;2022-09-17T02:15:28;100164.35;;;33.67;16.03
72794;BME280;63436;26.334;50.194;2022-09-17T02:17:56;100165.56;;;33.45;16.27
72794;BME280;63436;26.334;50.194;2022-09-17T02:20:18;100164.53;;;32.83;17.04
72794;BME280;63436;26.334;50.194;2022-09-17T02:22:47;100163.90;;;33.21;16.83
72794;BME280;63436;26.334;50.194;2022-09-17T02:25:15;100164.77;;;34.24;16.60
72794;BME280;63436;26.334;50.194;2022-09-17T02:27:41;100165.35;;;33.50;16.82
72794;BME280;63436;26.334;50.194;2022-09-17T02:29:59;100167.82;;;34.34;16.78
72794;BME280;63436;26.334;50.194;2022-09-17T02:32:24;100169.44;;;34.12;17.16
72794;BME280;63436;26.334;50.194;2022-09-17T02:34:50;100172.75;;;34.02;17.52
72794;BME280;63436;26.334;50.194;2022-09-17T02:37:16;100170.98;;;33.68;17.70
72794;BME280;63436;26.334;50.194;2022-09-17T02:39:41;100174.65;;;33.91;18.08
72794;BME280;63436;26.334;50.194;2022-09-17T02:42:18;100174.37;;;33.98;18.22
72794;BME280;63436;26.334;50.194;2022-09-17T02:47:08;100175.88;;;33.98;18.87
72794;BME280;63436;26.334;50.194;2022-09-17T02:49:34;100174.25;;;33.84;19.58
72794;BME280;63436;26.334;50.194;2022-09-17T02:51:55;100174.95;;;33.26;19.96
72794;BME280;63436;26.334;50.194;2022-09-17T02:54:21;100175.98;;;33.91;19.41
72794;BME280;63436;26.334;50.194;2022-09-17T02:56:47;100176.76;;;34.35;19.72
72794;BME280;63436;26.334;50.194;2022-09-17T02:59:11;100177.70;;;33.80;19.98
72794;BME280;63436;26.334;50.194;2022-09-17T03:01:33;100178.64;;;34.07;20.04
72794;BME280;63436;26.334;50.194;2022-09-17T03:03:56;100176.27;;;33.53;20.75
72794;BME280;63436;26.334;50.194;2022-09-17T03:06:21;100179.65;;;34.53;19.98
72794;BME280;63436;26.334;50.194;2022-09-17T03:08:47;100186.48;;;34.74;20.25
72794;BME280;63436;26.334;50.194;2022-09-17T03:11:12;100191.56;;;34.17;20.97
72794;BME280;63436;26.334;50.194;2022-09-17T03:13:37;100194.88;;;34.30;20.90
72794;BME280;63436;26.334;50.194;2022-09-17T03:16:04;100197.21;;;34.44;20.84
72794;BME280;63436;26.334;50.194;2022-09-17T03:18:28;100200.35;;;34.30;20.54
72794;BME280;63436;26.334;50.194;2022-09-17T03:20:54;100203.67;;;33.95;20.51
72794;BME280;63436;26.334;50.194;2022-09-17T03:23:20;100204.11;;;34.36;20.18
72794;BME280;63436;26.334;50.194;2022-09-17T03:25:45;100205.97;;;34.69;19.69
72794;BME280;63436;26.334;50.194;2022-09-17T03:28:10;100210.13;;;34.03;20.22
72794;BME280;63436;26.334;50.194;2022-09-17T03:30:37;100212.63;;;34.34;19.78
72794;BME280;63436;26.334;50.194;2022-09-17T03:33:01;100215.24;;;34.57;19.61
72794;BME280;63436;26.334;50.194;2022-09-17T03:35:26;100216.89;;;34.09;20.09
72794;BME280;63436;26.334;50.194;2022-09-17T03:37:58;100218.59;;;34.77;19.68
72794;BME280;63436;26.334;50.194;2022-09-17T03:40:17;100223.17;;;34.80;19.64
72794;BME280;63436;26.334;50.194;2022-09-17T03:42:43;100222.66;;;34.53;19.98
72794;BME280;63436;26.334;50.194;2022-09-17T03:45:09;100226.44;;;34.59;20.02
72794;BME280;63436;26.334;50.194;2022-09-17T03:47:34;100225.03;;;34.87;19.68
72794;BME280;63436;26.334;50.194;2022-09-17T03:49:59;100226.48;;;34.70;19.95
72794;BME280;63436;26.334;50.194;2022-09-17T03:52:26;100224.99;;;34.58;20.00
72794;BME280;63436;26.334;50.194;2022-09-17T03:54:50;100225.12;;;35.33;20.06
72794;BME280;63436;26.334;50.194;2022-09-17T03:57:16;100226.99;;;34.74;20.21
72794;BME280;63436;26.334;50.194;2022-09-17T03:59:47;100227.57;;;35.22;20.17
72794;BME280;63436;26.334;50.194;2022-09-17T04:02:16;100229.04;;;35.20;20.13
72794;BME280;63436;26.334;50.194;2022-09-17T04:04:37;100231.59;;;34.07;21.39
72794;BME280;63436;26.334;50.194;2022-09-17T04:06:58;100231.05;;;35.71;19.96
72794;BME280;63436;26.334;50.194;2022-09-17T04:09:33;100232.12;;;35.51;20.25
72794;BME280;63436;26.334;50.194;2022-09-17T04:11:48;100231.67;;;35.52;20.18
72794;BME280;63436;26.334;50.194;2022-09-17T04:14:15;100234.52;;;35.15;20.40
72794;BME280;63436;26.334;50.194;2022-09-17T04:16:39;100231.92;;;34.53;20.92
72794;BME280;63436;26.334;50.194;2022-09-17T04:19:05;100232.45;;;35.95;20.21
72794;BME280;63436;26.334;50.194;2022-09-17T04:21:31;100235.42;;;35.38;21.07
72794;BME280;63436;26.334;50.194;2022-09-17T04:23:56;100236.77;;;35.32;20.63
72794;BME280;63436;26.334;50.194;2022-09-17T04:26:21;100240.42;;;36.17;20.32
72794;BME280;63436;26.334;50.194;2022-09-17T04:28:46;100238.55;;;36.07;20.08
72794;BME280;63436;26.334;50.194;2022-09-17T04:31:12;100245.10;;;34.96;20.98
72794;BME280;63436;26.334;50.194;2022-09-17T04:33:37;100244.75;;;36.11;20.27
72794;BME280;63436;26.334;50.194;2022-09-17T04:38:29;100244.10;;;35.86;20.33
72794;BME280;63436;26.334;50.194;2022-09-17T04:40:54;100239.05;;;35.35;20.98
72794;BME280;63436;26.334;50.194;2022-09-17T04:43:19;100243.14;;;35.62;20.34
72794;BME280;63436;26.334;50.194;2022-09-17T04:45:45;100245.52;;;36.33;19.52
72794;BME280;63436;26.334;50.194;2022-09-17T04:48:10;100244.65;;;36.00;19.58
72794;BME280;63436;26.334;50.194;2022-09-17T04:50:36;100248.19;;;36.91;18.43
72794;BME280;63436;26.334;50.194;2022-09-17T04:53:02;100247.54;;;36.61;18.61
72794;BME280;63436;26.334;50.194;2022-09-17T04:55:30;100248.20;;;33.42;21.06
72794;BME280;63436;26.334;50.194;2022-09-17T04:57:57;100248.66;;;36.22;18.37
72794;BME280;63436;26.334;50.194;2022-09-17T05:00:20;100245.99;;;35.97;18.74
72794;BME280;63436;26.334;50.194;2022-09-17T05:02:44;100247.51;;;35.53;19.11
72794;BME280;63436;26.334;50.194;2022-09-17T05:05:09;100247.87;;;37.54;17.31
72794;BME280;63436;26.334;50.194;2022-09-17T05:07:37;100244.11;;;35.85;18.78
72794;BME280;63436;26.334;50.194;2022-09-17T05:10:05;100244.26;;;37.99;17.29
72794;BME280;63436;26.334;50.194;2022-09-17T05:12:26;100245.65;;;36.32;18.11
72794;BME280;63436;26.334;50.194;2022-09-17T05:14:51;100246.60;;;36.71;18.51
72794;BME280;63436;26.334;50.194;2022-09-17T05:17:21;100244.85;;;36.26;18.55
72794;BME280;63436;26.334;50.194;2022-09-17T05:19:41;100251.92;;;37.05;18.07
72794;BME280;63436;26.334;50.194;2022-09-17T05:22:07;100251.73;;;36.82;17.95
72794;BME280;63436;26.334;50.194;2022-09-17T05:26:58;100255.47;;;36.59;17.68
72794;BME280;63436;26.334;50.194;2022-09-17T05:29:22;100250.68;;;36.00;18.38
72794;BME280;63436;26.334;50.194;2022-09-17T05:31:48;100249.19;;;35.84;17.74
72794;BME280;63436;26.334;50.194;2022-09-17T05:36:39;100250.31;;;36.38;17.75
72794;BME280;63436;26.334;50.194;2022-09-17T05:39:04;100256.86;;;36.92;17.84
72794;BME280;63436;26.334;50.194;2022-09-17T05:41:30;100257.74;;;35.95;17.80
72794;BME280;63436;26.334;50.194;2022-09-17T05:43:56;100255.35;;;35.31;18.37
72794;BME280;63436;26.334;50.194;2022-09-17T05:46:20;100260.04;;;37.53;16.42
72794;BME280;63436;26.334;50.194;2022-09-17T05:48:46;100256.44;;;37.83;16.50
72794;BME280;63436;26.334;50.194;2022-09-17T05:51:12;100256.58;;;37.10;16.89
72794;BME280;63436;26.334;50.194;2022-09-17T05:53:37;100254.13;;;37.17;16.12
72794;BME280;63436;26.334;50.194;2022-09-17T05:56:02;100258.22;;;36.88;16.62
72794;BME280;63436;26.334;50.194;2022-09-17T05:58:28;100260.19;;;36.71;17.13
72794;BME280;63436;26.334;50.194;2022-09-17T06:00:53;100260.51;;;36.88;16.49
72794;BME280;63436;26.334;50.194;2022-09-17T06:03:19;100258.53;;;37.18;16.95
72794;BME280;63436;26.334;50.194;2022-09-17T06:05:52;100258.65;;;37.68;16.31
72794;BME280;63436;26.334;50.194;2022-09-17T06:08:09;100265.82;;;36.99;15.62
72794;BME280;63436;26.334;50.194;2022-09-17T06:10:35;100259.43;;;36.93;16.01
72794;BME280;63436;26.334;50.194;2022-09-17T06:13:01;100265.27;;;36.89;15.57
72794;BME280;63436;26.334;50.194;2022-09-17T06:15:27;100262.38;;;36.08;16.29
72794;BME280;63436;26.334;50.194;2022-09-17T06:17:51;100261.00;;;37.10;15.26
72794;BME280;63436;26.334;50.194;2022-09-17T06:20:18;100260.33;;;37.71;15.20
72794;BME280;63436;26.334;50.194;2022-09-17T06:22:42;100261.18;;;36.02;16.26
72794;BME280;63436;26.334;50.194;2022-09-17T06:25:07;100260.37;;;36.48;15.95
72794;BME280;63436;26.334;50.194;2022-09-17T06:27:34;100255.72;;;38.07;14.00
72794;BME280;63436;26.334;50.194;2022-09-17T06:29:58;100260.88;;;37.02;15.20
72794;BME280;63436;26.334;50.194;2022-09-17T06:32:24;100258.69;;;35.62;16.14
72794;BME280;63436;26.334;50.194;2022-09-17T06:34:49;100254.25;;;38.64;14.25
72794;BME280;63436;26.334;50.194;2022-09-17T06:37:14;100254.60;;;38.51;14.02
72794;BME280;63436;26.334;50.194;2022-09-17T06:39:39;100253.50;;;38.06;15.08
72794;BME280;63436;26.334;50.194;2022-09-17T06:44:32;100249.27;;;35.28;17.93
72794;BME280;63436;26.334;50.194;2022-09-17T06:46:56;100253.43;;;35.64;17.47
72794;BME280;63436;26.334;50.194;2022-09-17T06:49:21;100250.14;;;38.57;15.19
72794;BME280;63436;26.334;50.194;2022-09-17T06:51:47;100248.81;;;39.16;14.60
72794;BME280;63436;26.334;50.194;2022-09-17T06:54:12;100245.50;;;37.54;15.61
72794;BME280;63436;26.334;50.194;2022-09-17T06:56:38;100246.94;;;36.28;15.29
72794;BME280;63436;26.334;50.194;2022-09-17T07:04:03;100244.08;;;37.22;14.76
72794;BME280;63436;26.334;50.194;2022-09-17T07:06:20;100240.04;;;39.08;13.72
72794;BME280;63436;26.334;50.194;2022-09-17T07:08:45;100238.82;;;37.02;14.89
72794;BME280;63436;26.334;50.194;2022-09-17T07:11:10;100237.84;;;36.53;16.82
72794;BME280;63436;26.334;50.194;2022-09-17T07:13:36;100241.74;;;36.45;16.25
72794;BME280;63436;26.334;50.194;2022-09-17T07:18:26;100238.38;;;39.78;14.07
72794;BME280;63436;26.334;50.194;2022-09-17T07:20:52;100229.61;;;37.25;16.01
72794;BME280;63436;26.334;50.194;2022-09-17T07:23:17;100226.35;;;37.94;15.30
72794;BME280;63436;26.334;50.194;2022-09-17T07:25:42;100230.67;;;37.11;15.80
72794;BME280;63436;26.334;50.194;2022-09-17T07:28:09;100228.60;;;37.94;15.22
72794;BME280;63436;26.334;50.194;2022-09-17T07:30:33;100225.45;;;36.95;16.24
72794;BME280;63436;26.334;50.194;2022-09-17T07:33:00;100220.74;;;37.38;15.43
72794;BME280;63436;26.334;50.194;2022-09-17T07:35:25;100219.85;;;38.03;15.61
72794;BME280;63436;26.334;50.194;2022-09-17T07:37:49;100214.59;;;37.77;16.00
72794;BME280;63436;26.334;50.194;2022-09-17T07:40:15;100214.05;;;37.78;15.67
72794;BME280;63436;26.334;50.194;2022-09-17T07:42:41;100211.10;;;37.17;16.41
72794;BME280;63436;26.334;50.194;2022-09-17T07:45:07;100216.89;;;40.00;13.66
72794;BME280;63436;26.334;50.194;2022-09-17T07:47:31;100216.70;;;39.44;14.49
72794;BME280;63436;26.334;50.194;2022-09-17T07:49:57;100216.99;;;39.27;13.53
72794;BME280;63436;26.334;50.194;2022-09-17T07:52:22;100219.63;;;37.95;15.42
72794;BME280;63436;26.334;50.194;2022-09-17T07:54:47;100220.23;;;36.73;16.85
72794;BME280;63436;26.334;50.194;2022-09-17T07:57:14;100221.08;;;34.95;18.06
72794;BME280;63436;26.334;50.194;2022-09-17T07:59:38;100219.15;;;38.50;15.69
72794;BME280;63436;26.334;50.194;2022-09-17T08:02:03;100215.94;;;37.80;16.58
72794;BME280;63436;26.334;50.194;2022-09-17T08:04:29;100208.62;;;36.33;16.49
72794;BME280;63436;26.334;50.194;2022-09-17T08:06:54;100215.46;;;38.05;15.75
72794;BME280;63436;26.334;50.194;2022-09-17T08:09:20;100207.11;;;36.98;16.16
72794;BME280;63436;26.334;50.194;2022-09-17T08:11:45;100200.37;;;37.03;16.17
72794;BME280;63436;26.334;50.194;2022-09-17T08:14:12;100204.95;;;36.74;16.52
72794;BME280;63436;26.334;50.194;2022-09-17T08:16:36;100204.67;;;39.15;14.51
72794;BME280;63436;26.334;50.194;2022-09-17T08:19:01;100206.71;;;36.85;17.11
72794;BME280;63436;26.334;50.194;2022-09-17T08:21:27;100204.81;;;39.11;14.71
72794;BME280;63436;26.334;50.194;2022-09-17T08:23:52;100206.03;;;34.75;18.12
72794;BME280;63436;26.334;50.194;2022-09-17T08:26:20;100204.27;;;36.10;17.50
72794;BME280;63436;26.334;50.194;2022-09-17T08:31:08;100205.46;;;34.98;18.28
72794;BME280;63436;26.334;50.194;2022-09-17T08:33:36;100206.58;;;36.78;16.63
72794;BME280;63436;26.334;50.194;2022-09-17T08:36:00;100202.12;;;34.99;17.54
72794;BME280;63436;26.334;50.194;2022-09-17T08:38:25;100197.55;;;36.33;17.30
72794;BME280;63436;26.334;50.194;2022-09-17T08:43:18;100197.86;;;36.72;15.86
72794;BME280;63436;26.334;50.194;2022-09-17T08:45:41;100188.48;;;38.41;14.58
72794;BME280;63436;26.334;50.194;2022-09-17T08:48:12;100195.84;;;37.64;14.87
72794;BME280;63436;26.334;50.194;2022-09-17T08:50:34;100195.14;;;38.51;14.49
72794;BME280;63436;26.334;50.194;2022-09-17T08:53:09;100194.64;;;37.54;15.67
72794;BME280;63436;26.334;50.194;2022-09-17T08:55:29;100190.23;;;38.16;15.34
72794;BME280;63436;26.334;50.194;2022-09-17T08:57:55;100187.28;;;36.16;16.84
72794;BME280;63436;26.334;50.194;2022-09-17T09:00:15;100185.37;;;35.95;17.83
72794;BME280;63436;26.334;50.194;2022-09-17T09:02:53;100180.07;;;36.88;16.80
72794;BME280;63436;26.334;50.194;2022-09-17T09:05:09;100174.46;;;37.01;16.70
72794;BME280;63436;26.334;50.194;2022-09-17T09:07:35;100175.07;;;37.58;16.03
72794;BME280;63436;26.334;50.194;2022-09-17T09:12:24;100172.03;;;36.35;16.69
72794;BME280;63436;26.334;50.194;2022-09-17T09:14:52;100171.19;;;35.82;16.47
72794;BME280;63436;26.334;50.194;2022-09-17T09:17:16;100168.82;;;35.83;17.10
72794;BME280;63436;26.334;50.194;2022-09-17T09:19:42;100165.73;;;36.57;16.22
72794;BME280;63436;26.334;50.194;2022-09-17T09:29:30;100158.37;;;36.51;15.33
72794;BME280;63436;26.334;50.194;2022-09-17T09:34:13;100162.58;;;36.25;17.61
72794;BME280;63436;26.334;50.194;2022-09-17T09:39:02;100152.12;;;35.68;18.13
72794;BME280;63436;26.334;50.194;2022-09-17T09:41:36;100155.78;;;37.43;16.81
72794;BME280;63436;26.334;50.194;2022-09-17T09:48:55;100146.94;;;36.46;17.59
72794;BME280;63436;26.334;50.194;2022-09-17T09:51:23;100147.44;;;35.81;18.46
72794;BME280;63436;26.334;50.194;2022-09-17T09:53:41;100143.80;;;36.99;17.83
72794;BME280;63436;26.334;50.194;2022-09-17T09:58:29;100140.07;;;36.96;17.34
72794;BME280;63436;26.334;50.194;2022-09-17T10:00:58;100143.88;;;40.13;15.28
72794;BME280;63436;26.334;50.194;2022-09-17T10:03:26;100135.78;;;37.06;16.91
72794;BME280;63436;26.334;50.194;2022-09-17T10:05:40;100137.98;;;38.92;15.36
72794;BME280;63436;26.334;50.194;2022-09-17T10:08:11;100137.95;;;39.00;15.54
72794;BME280;63436;26.334;50.194;2022-09-17T10:10:30;100139.56;;;36.63;18.73
72794;BME280;63436;26.334;50.194;2022-09-17T10:15:24;100137.86;;;36.18;18.34
72794;BME280;63436;26.334;50.194;2022-09-17T10:20:15;100134.02;;;38.02;16.40
72794;BME280;63436;26.334;50.194;2022-09-17T10:22:38;100140.90;;;36.25;17.45
72794;BME280;63436;26.334;50.194;2022-09-17T10:25:06;100136.62;;;37.47;16.80
72794;BME280;63436;26.334;50.194;2022-09-17T10:27:29;100129.96;;;36.15;17.72
72794;BME280;63436;26.334;50.194;2022-09-17T10:30:01;100126.71;;;38.51;15.47
72794;BME280;63436;26.334;50.194;2022-09-17T10:32:20;100123.64;;;37.75;15.44
72794;BME280;63436;26.334;50.194;2022-09-17T10:34:58;100121.46;;;36.49;16.84
72794;BME280;63436;26.334;50.194;2022-09-17T10:39:36;100122.31;;;37.55;15.43
72794;BME280;63436;26.334;50.194;2022-09-17T10:42:02;100120.25;;;38.19;14.47
72794;BME280;63436;26.334;50.194;2022-09-17T10:44:27;100116.23;;;35.66;15.46
72794;BME280;63436;26.334;50.194;2022-09-17T10:46:51;100117.99;;;36.05;14.04
72794;BME280;63436;26.334;50.194;2022-09-17T10:51:42;100110.50;;;37.63;11.99
72794;BME280;63436;26.334;50.194;2022-09-17T10:54:16;100114.16;;;36.55;11.57
72794;BME280;63436;26.334;50.194;2022-09-17T10:56:34;100114.30;;;37.73;11.11
72794;BME280;63436;26.334;50.194;2022-09-17T10:59:09;100109.12;;;37.17;11.46
72794;BME280;63436;26.334;50.194;2022-09-17T11:01:31;100109.16;;;36.61;11.59
72794;BME280;63436;26.334;50.194;2022-09-17T11:08:47;100105.38;;;38.74;9.65
72794;BME280;63436;26.334;50.194;2022-09-17T11:11:14;100097.11;;;39.68;9.29
72794;BME280;63436;26.334;50.194;2022-09-17T11:13:36;100104.62;;;35.92;11.30
72794;BME280;63436;26.334;50.194;2022-09-17T11:16:09;100103.78;;;37.95;10.18
72794;BME280;63436;26.334;50.194;2022-09-17T11:18:33;100107.64;;;37.14;9.86
72794;BME280;63436;26.334;50.194;2022-09-17T11:23:21;100101.83;;;36.48;9.70
72794;BME280;63436;26.334;50.194;2022-09-17T11:25:45;100100.57;;;38.39;8.53
72794;BME280;63436;26.334;50.194;2022-09-17T11:28:15;100104.96;;;37.11;9.56
72794;BME280;63436;26.334;50.194;2022-09-17T11:30:34;100107.19;;;35.36;9.64
72794;BME280;63436;26.334;50.194;2022-09-17T11:33:10;100101.01;;;37.09;9.36
72794;BME280;63436;26.334;50.194;2022-09-17T11:35:21;100098.53;;;37.80;8.71
72794;BME280;63436;26.334;50.194;2022-09-17T11:37:50;100093.56;;;36.85;8.87
72794;BME280;63436;26.334;50.194;2022-09-17T11:40:14;100099.03;;;36.16;9.90
72794;BME280;63436;26.334;50.194;2022-09-17T11:42:40;100098.22;;;38.09;8.90
72794;BME280;63436;26.334;50.194;2022-09-17T11:45:04;100096.32;;;38.46;8.29
72794;BME280;63436;26.334;50.194;2022-09-17T11:47:31;100092.92;;;36.47;9.46
72794;BME280;63436;26.334;50.194;2022-09-17T11:49:57;100095.12;;;37.48;9.30
72794;BME280;63436;26.334;50.194;2022-09-17T11:52:21;100089.04;;;37.81;8.63
72794;BME280;63436;26.334;50.194;2022-09-17T11:54:46;100085.88;;;38.51;8.16
72794;BME280;63436;26.334;50.194;2022-09-17T11:57:15;100089.04;;;38.61;8.88
72794;BME280;63436;26.334;50.194;2022-09-17T11:59:38;100093.98;;;36.66;11.19
72794;BME280;63436;26.334;50.194;2022-09-17T12:02:03;100091.54;;;37.77;10.97
72794;BME280;63436;26.334;50.194;2022-09-17T12:04:36;100096.79;;;36.63;11.08
72794;BME280;63436;26.334;50.194;2022-09-17T12:09:19;100090.76;;;37.04;11.08
72794;BME280;63436;26.334;50.194;2022-09-17T12:14:13;100093.47;;;36.97;11.96
72794;BME280;63436;26.334;50.194;2022-09-17T12:16:37;100095.97;;;39.02;10.98
72794;BME280;63436;26.334;50.194;2022-09-17T12:19:00;100097.30;;;38.75;10.96
72794;BME280;63436;26.334;50.194;2022-09-17T12:21:26;100100.90;;;36.29;12.64
72794;BME280;63436;26.334;50.194;2022-09-17T12:23:51;100098.74;;;37.40;11.70
72794;BME280;63436;26.334;50.194;2022-09-17T12:28:44;100103.95;;;36.23;12.69
72794;BME280;63436;26.334;50.194;2022-09-17T12:31:10;100099.32;;;36.75;12.05
72794;BME280;63436;26.334;50.194;2022-09-17T12:33:34;100100.21;;;36.86;12.70
72794;BME280;63436;26.334;50.194;2022-09-17T12:36:08;100102.13;;;38.31;11.68
72794;BME280;63436;26.334;50.194;2022-09-17T12:38:33;100100.71;;;36.07;13.04
72794;BME280;63436;26.334;50.194;2022-09-17T12:40:51;100096.57;;;37.17;12.66
72794;BME280;63436;26.334;50.194;2022-09-17T12:48:13;100094.25;;;35.51;13.54
72794;BME280;63436;26.334;50.194;2022-09-17T12:50:35;100097.33;;;36.52;12.92
72794;BME280;63436;26.334;50.194;2022-09-17T12:53:05;100092.20;;;38.95;11.21
72794;BME280;63436;26.334;50.194;2022-09-17T12:57:50;100096.12;;;38.85;11.53
72794;BME280;63436;26.334;50.194;2022-09-17T13:00:10;100094.48;;;38.17;11.56
72794;BME280;63436;26.334;50.194;2022-09-17T13:02:42;100099.13;;;36.62;12.25
72794;BME280;63436;26.334;50.194;2022-09-17T13:07:40;100093.00;;;35.46;12.58
72794;BME280;63436;26.334;50.194;2022-09-17T13:10:02;100098.75;;;36.24;12.46
72794;BME280;63436;26.334;50.194;2022-09-17T13:17:12;100109.19;;;37.05;12.65
72794;BME280;63436;26.334;50.194;2022-09-17T13:19:38;100114.33;;;37.12;13.39
72794;BME280;63436;26.334;50.194;2022-09-17T13:22:02;100119.72;;;36.31;13.72
72794;BME280;63436;26.334;50.194;2022-09-17T13:24:24;100114.66;;;35.89;15.02
72794;BME280;63436;26.334;50.194;2022-09-17T13:26:48;100117.52;;;36.81;15.05
72794;BME280;63436;26.334;50.194;2022-09-17T13:31:47;100117.70;;;36.83;14.77
72794;BME280;63436;26.334;50.194;2022-09-17T13:36:37;100119.48;;;35.82;16.10
72794;BME280;63436;26.334;50.194;2022-09-17T13:41:28;100123.09;;;36.06;19.92
72794;BME280;63436;26.334;50.194;2022-09-17T13:43:47;100127.40;;;37.17;21.14
72794;BME280;63436;26.334;50.194;2022-09-17T13:46:15;100119.74;;;36.38;19.18
72794;BME280;63436;26.334;50.194;2022-09-17T13:48:50;100123.02;;;36.80;17.23
72794;BME280;63436;26.334;50.194;2022-09-17T13:53:28;100117.74;;;36.02;16.24
72794;BME280;63436;26.334;50.194;2022-09-17T13:55:55;100124.09;;;35.33;16.61
72794;BME280;63436;26.334;50.194;2022-09-17T13:58:24;100119.78;;;36.01;17.85
72794;BME280;63436;26.334;50.194;2022-09-17T14:00:50;100124.91;;;34.46;16.28
72794;BME280;63436;26.334;50.194;2022-09-17T14:05:35;100124.03;;;35.93;16.29
72794;BME280;63436;26.334;50.194;2022-09-17T14:10:34;100124.61;;;36.31;16.08
72794;BME280;63436;26.334;50.194;2022-09-17T14:12:52;100121.35;;;36.84;16.96
72794;BME280;63436;26.334;50.194;2022-09-17T14:15:34;100123.91;;;36.35;16.08
72794;BME280;63436;26.334;50.194;2022-09-17T14:17:49;100122.29;;;36.51;15.86
72794;BME280;63436;26.334;50.194;2022-09-17T14:20:08;100122.58;;;35.42;14.78
72794;BME280;63436;26.334;50.194;2022-09-17T14:22:34;100125.56;;;36.05;15.15
72794;BME280;63436;26.334;50.194;2022-09-17T14:24:58;100125.41;;;35.84;16.39
72794;BME280;63436;26.334;50.194;2022-09-17T14:30:03;100130.07;;;35.21;16.87
72794;BME280;63436;26.334;50.194;2022-09-17T14:32:17;100128.09;;;36.58;16.54
72794;BME280;63436;26.334;50.194;2022-09-17T14:34:40;100133.90;;;35.23;18.99
72794;BME280;63436;26.334;50.194;2022-09-17T14:37:10;100135.87;;;35.03;19.95